createdAt,value
2023-05-19T00:01:16.991Z,10.30
2023-05-19T00:03:54.215Z,10.20
2023-05-19T00:06:22.419Z,10.20
2023-05-19T00:08:49.459Z,10.20
2023-05-19T00:11:16.201Z,10.20
2023-05-19T00:13:48.240Z,10.20
2023-05-19T00:16:14.990Z,10.20
2023-05-19T00:18:42.055Z,10.20
2023-05-19T00:21:08.869Z,10.20
2023-05-19T00:23:35.680Z,10.20
2023-05-19T00:26:02.219Z,10.20
2023-05-19T00:28:28.842Z,10.20
2023-05-19T00:30:56.093Z,10.30
2023-05-19T00:33:24.724Z,10.30
2023-05-19T00:35:51.397Z,10.30
2023-05-19T00:38:18.035Z,10.20
2023-05-19T00:40:45.351Z,10.20
2023-05-19T00:43:12.200Z,10.20
2023-05-19T00:45:38.792Z,10.20
2023-05-19T00:48:05.481Z,10.20
2023-05-19T00:50:32.394Z,10.20
2023-05-19T00:52:59.158Z,10.20
2023-05-19T00:55:27.986Z,10.20
2023-05-19T00:57:57.702Z,10.20
2023-05-19T01:00:24.543Z,10.20
2023-05-19T01:02:51.607Z,10.20
2023-05-19T01:05:18.258Z,10.20
2023-05-19T01:07:44.968Z,10.20
2023-05-19T01:10:11.770Z,10.30
2023-05-19T01:12:38.570Z,10.20
2023-05-19T01:15:08.765Z,10.20
2023-05-19T01:17:49.397Z,10.20
2023-05-19T01:20:25.951Z,10.10
2023-05-19T01:23:07.645Z,10.10
2023-05-19T01:25:49.351Z,10.20
2023-05-19T01:28:37.665Z,10.20
2023-05-19T01:31:06.217Z,10.10
2023-05-19T01:33:35.032Z,10.10
2023-05-19T01:38:57.317Z,10.10
2023-05-19T01:41:24.570Z,10.10
2023-05-19T01:43:51.370Z,10.10
2023-05-19T01:46:19.673Z,10.00
2023-05-19T01:49:02.800Z,10.00
2023-05-19T01:51:29.429Z,10.00
2023-05-19T01:53:56.350Z,10.00
2023-05-19T01:56:28.973Z,10.00
2023-05-19T01:59:00.285Z,10.00
2023-05-19T02:01:36.577Z,10.00
2023-05-19T02:04:04.176Z,10.00
2023-05-19T02:06:37.301Z,10.00
2023-05-19T02:09:30.324Z,10.00
2023-05-19T02:12:02.937Z,10.00
2023-05-19T02:14:39.338Z,10.00
2023-05-19T02:17:06.467Z,10.00
2023-05-19T02:19:34.161Z,10.00
2023-05-19T02:22:00.800Z,9.90
2023-05-19T02:24:27.406Z,9.90
2023-05-19T02:26:54.424Z,9.90
2023-05-19T02:29:21.041Z,10.00
2023-05-19T02:31:47.736Z,10.00
2023-05-19T02:34:14.425Z,10.00
2023-05-19T02:36:43.052Z,9.90
2023-05-19T02:39:10.939Z,9.90
2023-05-19T02:41:38.087Z,9.90
2023-05-19T02:44:04.802Z,9.80
2023-05-19T02:46:31.462Z,9.80
2023-05-19T02:48:58.044Z,9.70
2023-05-19T02:51:24.613Z,9.70
2023-05-19T02:53:51.227Z,9.70
2023-05-19T02:56:17.758Z,9.70
2023-05-19T02:58:44.583Z,9.70
2023-05-19T03:01:11.375Z,9.70
2023-05-19T03:03:38.110Z,9.70
2023-05-19T03:06:05.036Z,9.60
2023-05-19T03:08:31.595Z,9.50
2023-05-19T03:10:58.156Z,9.50
2023-05-19T03:13:24.819Z,9.40
2023-05-19T03:15:51.437Z,9.30
2023-05-19T03:18:18.351Z,9.20
2023-05-19T03:20:44.946Z,9.10
2023-05-19T03:23:11.974Z,9.10
2023-05-19T03:25:38.555Z,9.00
2023-05-19T03:28:05.499Z,8.90
2023-05-19T03:30:32.217Z,8.70
2023-05-19T03:33:01.572Z,8.70
2023-05-19T03:35:28.553Z,8.60
2023-05-19T03:37:55.234Z,8.60
2023-05-19T03:40:21.853Z,8.50
2023-05-19T03:42:48.418Z,8.60
2023-05-19T03:45:15.049Z,8.50
2023-05-19T03:47:42.124Z,8.40
2023-05-19T03:50:09.817Z,8.40
2023-05-19T03:52:36.389Z,8.50
2023-05-19T03:55:02.964Z,8.40
2023-05-19T03:57:29.561Z,8.40
2023-05-19T03:59:56.139Z,8.40
2023-05-19T04:02:22.805Z,8.40
2023-05-19T04:04:50.764Z,8.40
2023-05-19T04:07:17.566Z,8.50
2023-05-19T04:09:45.084Z,8.60
2023-05-19T04:12:11.802Z,8.60
2023-05-19T04:14:38.410Z,8.60
2023-05-19T04:17:05.428Z,8.70
2023-05-19T04:19:32.127Z,8.70
2023-05-19T04:21:58.785Z,8.70
2023-05-19T04:24:25.389Z,8.80
2023-05-19T04:26:52.255Z,8.80
2023-05-19T04:29:19.024Z,8.80
2023-05-19T04:31:45.680Z,8.90
2023-05-19T04:34:12.343Z,8.90
2023-05-19T04:36:38.914Z,8.90
2023-05-19T04:39:11.583Z,9.00
2023-05-19T04:41:40.375Z,9.00
2023-05-19T04:44:09.734Z,9.10
2023-05-19T04:46:36.495Z,9.20
2023-05-19T04:49:03.205Z,9.20
2023-05-19T04:51:31.403Z,9.20
2023-05-19T04:53:58.082Z,9.20
2023-05-19T04:56:24.677Z,9.20
2023-05-19T04:58:51.483Z,9.30
2023-05-19T05:01:18.069Z,9.40
2023-05-19T05:03:44.707Z,9.50
2023-05-19T05:06:11.708Z,9.60
2023-05-19T05:08:42.898Z,9.60
2023-05-19T05:11:09.690Z,9.70
2023-05-19T05:13:36.378Z,9.90
2023-05-19T05:16:07.624Z,9.90
2023-05-19T05:18:34.730Z,10.00
2023-05-19T05:21:01.537Z,10.10
2023-05-19T05:23:28.313Z,10.20
2023-05-19T05:25:54.977Z,10.30
2023-05-19T05:28:21.543Z,10.40
2023-05-19T05:30:49.054Z,10.50
2023-05-19T05:33:16.242Z,10.70
2023-05-19T05:35:42.912Z,10.80
2023-05-19T05:38:11.399Z,11.00
2023-05-19T05:40:38.096Z,11.10
2023-05-19T05:43:04.633Z,11.20
2023-05-19T05:45:31.329Z,11.40
2023-05-19T05:47:58.290Z,11.50
2023-05-19T05:50:25.028Z,11.60
2023-05-19T05:52:53.571Z,11.60
2023-05-19T05:55:20.338Z,11.70
2023-05-19T05:57:48.705Z,11.70
2023-05-19T06:00:15.893Z,11.70
2023-05-19T06:03:03.177Z,11.70
2023-05-19T06:05:30.315Z,11.90
2023-05-19T06:07:57.078Z,12.00
2023-05-19T06:10:23.622Z,12.00
2023-05-19T06:12:50.232Z,12.10
2023-05-19T06:15:17.054Z,12.10
2023-05-19T06:17:43.770Z,12.10
2023-05-19T06:20:13.560Z,12.00
2023-05-19T06:22:40.192Z,12.00
2023-05-19T06:25:08.841Z,12.10
2023-05-19T06:27:35.573Z,12.10
2023-05-19T06:30:02.249Z,12.20
2023-05-19T06:32:29.872Z,12.20
2023-05-19T06:34:58.320Z,12.30
2023-05-19T06:37:25.052Z,12.30
2023-05-19T06:39:52.586Z,12.40
2023-05-19T06:42:22.295Z,12.60
2023-05-19T06:44:49.829Z,12.60
2023-05-19T06:47:16.785Z,12.70
2023-05-19T06:49:44.498Z,12.80
2023-05-19T06:52:11.367Z,12.60
2023-05-19T06:54:37.924Z,12.60
2023-05-19T06:57:04.584Z,12.60
2023-05-19T06:59:31.210Z,12.60
2023-05-19T07:01:57.780Z,12.60
2023-05-19T07:04:24.548Z,12.70
2023-05-19T07:06:51.087Z,12.80
2023-05-19T07:09:17.802Z,12.90
2023-05-19T07:11:44.926Z,13.00
2023-05-19T07:14:11.526Z,12.90
2023-05-19T07:16:38.380Z,13.00
2023-05-19T07:19:05.049Z,13.00
2023-05-19T07:21:31.652Z,13.10
2023-05-19T07:23:58.193Z,13.00
2023-05-19T07:26:24.748Z,13.00
2023-05-19T07:28:51.894Z,13.00
2023-05-19T07:31:18.535Z,13.20
2023-05-19T07:33:45.230Z,13.10
2023-05-19T07:36:11.830Z,13.20
2023-05-19T07:38:38.428Z,13.30
2023-05-19T07:41:05.269Z,13.30
2023-05-19T07:43:31.859Z,13.30
2023-05-19T07:45:58.435Z,13.50
2023-05-19T07:48:25.895Z,13.60
2023-05-19T07:50:52.811Z,13.70
2023-05-19T07:53:19.764Z,13.70
2023-05-19T07:55:46.399Z,13.90
2023-05-19T07:58:12.936Z,13.90
2023-05-19T08:00:39.594Z,14.00
2023-05-19T08:03:06.349Z,14.00
2023-05-19T08:05:34.248Z,14.10
2023-05-19T08:08:00.849Z,14.10
2023-05-19T08:10:27.465Z,14.10
2023-05-19T08:12:56.334Z,14.00
2023-05-19T08:15:22.945Z,14.00
2023-05-19T08:17:49.862Z,14.00
2023-05-19T08:20:16.491Z,14.10
2023-05-19T08:22:43.214Z,14.10
2023-05-19T08:25:10.285Z,14.20
2023-05-19T08:27:36.997Z,14.10
2023-05-19T08:30:03.693Z,14.10
2023-05-19T08:32:30.353Z,14.10
2023-05-19T08:34:56.930Z,14.10
2023-05-19T08:37:23.470Z,14.10
2023-05-19T08:39:50.033Z,14.20
2023-05-19T08:42:16.606Z,14.10
2023-05-19T08:44:43.997Z,14.10
2023-05-19T08:47:13.825Z,14.10
2023-05-19T08:49:44.679Z,14.20
2023-05-19T08:52:22.051Z,14.20
2023-05-19T08:55:09.683Z,14.20
2023-05-19T08:57:36.810Z,14.40
2023-05-19T09:00:12.103Z,14.30
2023-05-19T09:02:50.360Z,14.20
2023-05-19T09:05:26.364Z,14.20
2023-05-19T09:07:53.110Z,14.20
2023-05-19T09:10:19.738Z,14.30
2023-05-19T09:12:47.715Z,14.50
2023-05-19T09:15:20.915Z,14.50
2023-05-19T09:17:50.483Z,14.60
2023-05-19T09:20:17.277Z,14.80
2023-05-19T09:22:47.557Z,14.80
2023-05-19T09:25:23.971Z,14.80
2023-05-19T09:27:51.111Z,14.80
2023-05-19T09:30:17.849Z,14.80
2023-05-19T09:32:44.734Z,15.00
2023-05-19T09:35:12.584Z,15.10
2023-05-19T09:37:39.714Z,14.80
2023-05-19T09:40:08.461Z,14.80
2023-05-19T09:42:38.806Z,14.80
2023-05-19T09:45:07.453Z,14.70
2023-05-19T09:47:36.760Z,14.60
2023-05-19T09:50:09.378Z,14.60
2023-05-19T09:52:39.785Z,14.60
2023-05-19T09:55:09.326Z,14.40
2023-05-19T09:57:40.349Z,14.50
2023-05-19T10:00:12.080Z,14.60
2023-05-19T10:02:41.777Z,14.70
2023-05-19T10:05:10.459Z,14.80
2023-05-19T10:07:37.663Z,14.90
2023-05-19T10:10:04.564Z,14.80
2023-05-19T10:12:31.886Z,14.80
2023-05-19T10:14:59.325Z,14.80
2023-05-19T10:17:26.124Z,14.80
2023-05-19T10:19:54.692Z,14.80
2023-05-19T10:22:23.419Z,14.90
2023-05-19T10:24:49.979Z,14.80
2023-05-19T10:27:17.650Z,14.80
2023-05-19T10:29:48.048Z,14.80
2023-05-19T10:32:16.766Z,14.90
2023-05-19T10:34:53.445Z,14.90
2023-05-19T10:37:29.179Z,14.90
2023-05-19T10:39:56.875Z,14.90
2023-05-19T10:42:29.437Z,14.90
2023-05-19T10:45:14.998Z,15.00
2023-05-19T10:47:41.992Z,15.00
2023-05-19T10:50:08.700Z,15.00
2023-05-19T10:52:39.037Z,15.00
2023-05-19T10:55:08.655Z,15.10
2023-05-19T10:57:35.626Z,15.10
2023-05-19T11:00:11.064Z,15.30
2023-05-19T11:02:41.532Z,15.20
2023-05-19T11:05:14.313Z,15.30
2023-05-19T11:07:41.488Z,15.40
2023-05-19T11:10:08.315Z,15.60
2023-05-19T11:12:44.384Z,15.70
2023-05-19T11:15:14.692Z,15.60
2023-05-19T11:17:42.525Z,15.60
2023-05-19T11:20:12.563Z,15.50
2023-05-19T11:22:39.796Z,15.60
2023-05-19T11:25:07.633Z,15.60
2023-05-19T11:27:35.044Z,15.70
2023-05-19T11:30:09.627Z,15.80
2023-05-19T11:32:39.349Z,15.90
2023-05-19T11:35:06.593Z,15.90
2023-05-19T11:37:33.353Z,15.90
2023-05-19T11:40:09.280Z,16.00
2023-05-19T11:42:36.914Z,16.10
2023-05-19T11:45:06.884Z,16.20
2023-05-19T11:47:42.083Z,16.40
2023-05-19T11:50:18.993Z,16.50
2023-05-19T11:52:47.448Z,16.50
2023-05-19T11:55:18.019Z,16.40
2023-05-19T11:58:02.962Z,16.40
2023-05-19T12:00:36.987Z,16.40
2023-05-19T12:03:04.076Z,16.40
2023-05-19T12:05:34.509Z,16.40
2023-05-19T12:08:03.129Z,16.40
2023-05-19T12:10:30.501Z,16.40
2023-05-19T12:12:58.442Z,16.40
2023-05-19T12:15:25.576Z,16.50
2023-05-19T12:17:56.894Z,16.60
2023-05-19T12:20:23.978Z,16.70
2023-05-19T12:22:51.147Z,16.70
2023-05-19T12:25:18.332Z,16.60
2023-05-19T12:27:45.209Z,16.60
2023-05-19T12:30:12.729Z,16.60
2023-05-19T12:32:39.393Z,16.50
2023-05-19T12:35:06.404Z,16.50
2023-05-19T12:37:33.274Z,16.40
2023-05-19T12:40:00.043Z,16.40
2023-05-19T12:42:30.898Z,16.30
2023-05-19T12:44:58.945Z,16.40
2023-05-19T12:47:30.848Z,16.40
2023-05-19T12:49:58.043Z,16.40
2023-05-19T12:52:24.753Z,16.50
2023-05-19T12:54:58.350Z,16.40
2023-05-19T12:57:25.597Z,16.50
2023-05-19T12:59:52.734Z,16.40
2023-05-19T13:02:19.939Z,16.40
2023-05-19T13:04:46.692Z,16.40
2023-05-19T13:07:13.694Z,16.40
2023-05-19T13:09:40.250Z,16.40
2023-05-19T13:12:06.902Z,16.40
2023-05-19T13:14:33.494Z,16.40
2023-05-19T13:17:00.187Z,16.40
2023-05-19T13:19:27.741Z,16.50
2023-05-19T13:21:54.385Z,16.60
2023-05-19T13:24:20.952Z,16.60
2023-05-19T13:26:48.129Z,16.70
2023-05-19T13:29:14.745Z,16.70
2023-05-19T13:31:41.369Z,16.70
2023-05-19T13:34:08.026Z,16.70
2023-05-19T13:36:34.985Z,16.80
2023-05-19T13:39:01.640Z,16.90
2023-05-19T13:41:29.500Z,16.90
2023-05-19T13:44:02.328Z,16.90
2023-05-19T13:46:40.861Z,16.80
2023-05-19T13:49:11.238Z,16.90
2023-05-19T13:51:37.793Z,17.00
2023-05-19T13:54:05.012Z,17.00
2023-05-19T13:56:31.856Z,17.10
2023-05-19T13:58:58.823Z,17.10
2023-05-19T14:01:25.467Z,17.10
2023-05-19T14:03:52.535Z,17.10
2023-05-19T14:06:19.723Z,17.00
2023-05-19T14:08:46.482Z,17.00
2023-05-19T14:11:19.954Z,17.00
2023-05-19T14:13:48.782Z,16.90
2023-05-19T14:16:17.333Z,16.80
2023-05-19T14:18:44.119Z,16.90
2023-05-19T14:21:13.641Z,16.90
2023-05-19T14:23:40.201Z,17.10
2023-05-19T14:26:06.906Z,17.10
2023-05-19T14:28:33.748Z,17.10
2023-05-19T14:31:00.413Z,17.20
2023-05-19T14:33:26.958Z,17.30
2023-05-19T14:35:53.683Z,17.30
2023-05-19T14:38:20.246Z,17.30
2023-05-19T14:40:48.423Z,17.30
2023-05-19T14:43:15.045Z,17.20
2023-05-19T14:45:44.575Z,17.10
2023-05-19T14:48:11.985Z,17.00
2023-05-19T14:50:38.874Z,17.00
2023-05-19T14:53:05.650Z,17.00
2023-05-19T14:55:32.347Z,17.00
2023-05-19T14:57:58.909Z,17.10
2023-05-19T15:00:28.586Z,17.10
2023-05-19T15:02:55.179Z,17.10
2023-05-19T15:05:24.025Z,17.10
2023-05-19T15:07:50.660Z,17.00
2023-05-19T15:10:17.831Z,16.90
2023-05-19T15:12:44.459Z,16.90
2023-05-19T15:15:11.211Z,16.90
2023-05-19T15:17:38.025Z,16.90
2023-05-19T15:20:04.833Z,17.00
2023-05-19T15:22:31.391Z,17.00
2023-05-19T15:24:57.945Z,17.00
2023-05-19T15:27:24.494Z,17.00
2023-05-19T15:29:51.097Z,17.00
2023-05-19T15:32:17.711Z,17.00
2023-05-19T15:34:44.318Z,16.80
2023-05-19T15:37:10.933Z,16.70
2023-05-19T15:39:37.554Z,16.70
2023-05-19T15:42:04.211Z,16.70
2023-05-19T15:44:30.855Z,16.60
2023-05-19T15:46:57.499Z,16.60
2023-05-19T15:49:25.151Z,16.60
2023-05-19T15:51:51.715Z,16.50
2023-05-19T15:54:18.309Z,16.50
2023-05-19T15:56:44.841Z,16.50
2023-05-19T15:59:11.399Z,16.50
2023-05-19T16:01:38.101Z,16.50
2023-05-19T16:06:56.166Z,16.30
2023-05-19T16:09:22.838Z,16.40
2023-05-19T16:11:49.613Z,16.40
2023-05-19T16:14:16.231Z,16.40
2023-05-19T16:16:44.449Z,16.20
2023-05-19T16:19:11.181Z,16.30
2023-05-19T16:21:37.742Z,16.30
2023-05-19T16:24:04.387Z,16.30
2023-05-19T16:26:30.987Z,16.30
2023-05-19T16:28:57.547Z,16.30
2023-05-19T16:31:24.354Z,16.30
2023-05-19T16:33:50.952Z,16.30
2023-05-19T16:36:17.506Z,16.30
2023-05-19T16:38:44.234Z,16.40
2023-05-19T16:41:11.231Z,16.30
2023-05-19T16:43:37.890Z,16.30
2023-05-19T16:46:05.280Z,16.40
2023-05-19T16:48:31.955Z,16.40
2023-05-19T16:50:59.316Z,16.40
2023-05-19T16:53:25.891Z,16.40
2023-05-19T16:55:52.455Z,16.30
2023-05-19T16:58:19.032Z,16.30
2023-05-19T17:00:45.911Z,16.30
2023-05-19T17:03:12.600Z,16.30
2023-05-19T17:05:41.724Z,16.30
2023-05-19T17:08:08.328Z,16.30
2023-05-19T17:13:28.265Z,16.20
2023-05-19T17:15:56.974Z,16.30
2023-05-19T17:18:23.678Z,16.40
2023-05-19T17:20:50.593Z,16.30
2023-05-19T17:23:17.344Z,16.30
2023-05-19T17:25:43.906Z,16.20
2023-05-19T17:28:10.609Z,16.20
2023-05-19T17:30:39.466Z,16.10
2023-05-19T17:33:06.229Z,16.10
2023-05-19T17:35:33.321Z,16.00
2023-05-19T17:38:00.719Z,16.00
2023-05-19T17:40:27.376Z,16.00
2023-05-19T17:42:53.944Z,15.90
2023-05-19T17:45:20.638Z,15.80
2023-05-19T17:47:47.284Z,15.80
2023-05-19T17:50:13.876Z,15.70
2023-05-19T17:52:41.062Z,15.60
2023-05-19T17:55:08.047Z,15.50
2023-05-19T17:57:35.360Z,15.50
2023-05-19T18:00:03.641Z,15.40
2023-05-19T18:02:30.456Z,15.30
2023-05-19T18:04:57.364Z,15.20
2023-05-19T18:07:26.199Z,15.10
2023-05-19T18:09:54.648Z,15.00
2023-05-19T18:12:21.379Z,14.90
2023-05-19T18:14:49.201Z,14.90
2023-05-19T18:17:15.747Z,14.90
2023-05-19T18:19:42.288Z,14.80
2023-05-19T18:22:12.818Z,14.70
2023-05-19T18:24:39.387Z,14.70
2023-05-19T18:27:05.953Z,14.60
2023-05-19T18:29:33.458Z,14.60
2023-05-19T18:32:01.097Z,14.60
2023-05-19T18:34:27.755Z,14.50
2023-05-19T18:36:54.334Z,14.50
2023-05-19T18:39:21.085Z,14.40
2023-05-19T18:41:47.805Z,14.50
2023-05-19T18:44:14.829Z,14.40
2023-05-19T18:46:41.423Z,14.30
2023-05-19T18:49:15.692Z,14.30
2023-05-19T18:51:44.865Z,14.30
2023-05-19T18:54:12.401Z,14.30
2023-05-19T18:56:39.176Z,14.10
2023-05-19T18:59:05.851Z,14.10
2023-05-19T19:01:32.448Z,14.10
2023-05-19T19:03:59.367Z,14.00
2023-05-19T19:06:25.936Z,14.00
2023-05-19T19:08:52.567Z,14.00
2023-05-19T19:11:19.206Z,14.00
2023-05-19T19:13:46.522Z,13.90
2023-05-19T19:16:13.098Z,13.90
2023-05-19T19:18:39.898Z,13.80
2023-05-19T19:21:06.699Z,13.80
2023-05-19T19:23:33.287Z,13.80
2023-05-19T19:26:00.000Z,13.80
2023-05-19T19:28:27.606Z,13.90
2023-05-19T19:30:54.318Z,13.80
2023-05-19T19:33:21.110Z,13.80
2023-05-19T19:35:47.803Z,13.80
2023-05-19T19:38:14.517Z,13.80
2023-05-19T19:40:41.110Z,13.70
2023-05-19T19:43:07.742Z,13.60
2023-05-19T19:45:34.898Z,13.60
2023-05-19T19:48:01.971Z,13.60
2023-05-19T19:50:28.625Z,13.60
2023-05-19T19:52:55.371Z,13.60
2023-05-19T19:55:21.982Z,13.50
2023-05-19T19:57:49.533Z,13.50
2023-05-19T20:00:16.591Z,13.50
2023-05-19T20:03:02.882Z,13.40
2023-05-19T20:05:29.894Z,13.50
2023-05-19T20:07:56.686Z,13.40
2023-05-19T20:10:23.250Z,13.40
2023-05-19T20:12:50.549Z,13.40
2023-05-19T20:15:17.312Z,13.30
2023-05-19T20:17:43.999Z,13.30
2023-05-19T20:20:12.162Z,13.30
2023-05-19T20:22:39.061Z,13.30
2023-05-19T20:25:06.055Z,13.30
2023-05-19T20:27:32.704Z,13.30
2023-05-19T20:29:59.302Z,13.30
2023-05-19T20:32:26.048Z,13.20
2023-05-19T20:34:52.792Z,13.20
2023-05-19T20:37:20.906Z,13.20
2023-05-19T20:39:47.513Z,13.20
2023-05-19T20:42:14.117Z,13.20
2023-05-19T20:44:40.753Z,13.20
2023-05-19T20:47:10.562Z,13.10
2023-05-19T20:49:37.133Z,13.10
2023-05-19T20:52:03.898Z,13.10
2023-05-19T20:54:30.449Z,13.00
2023-05-19T20:56:57.000Z,13.20
2023-05-19T20:59:23.648Z,13.00
2023-05-19T21:01:50.547Z,13.00
2023-05-19T21:04:17.276Z,13.00
2023-05-19T21:06:43.881Z,13.00
2023-05-19T21:09:11.009Z,13.00
2023-05-19T21:11:37.635Z,13.00
2023-05-19T21:14:04.489Z,13.00
2023-05-19T21:16:31.517Z,12.90
2023-05-19T21:18:58.289Z,13.00
2023-05-19T21:21:26.720Z,12.90
2023-05-19T21:23:53.627Z,12.90
2023-05-19T21:26:21.627Z,12.80
2023-05-19T21:28:48.178Z,12.80
2023-05-19T21:31:14.790Z,12.80
2023-05-19T21:33:41.695Z,12.90
2023-05-19T21:36:08.402Z,12.90
2023-05-19T21:38:35.001Z,12.90
2023-05-19T21:41:01.604Z,12.90
2023-05-19T21:43:28.282Z,12.80
2023-05-19T21:45:55.474Z,12.80
2023-05-19T21:48:22.212Z,12.80
2023-05-19T21:50:52.573Z,12.80
2023-05-19T21:53:19.130Z,12.80
2023-05-19T21:55:46.011Z,12.80
2023-05-19T21:58:12.835Z,12.80
2023-05-19T22:00:39.724Z,12.70
2023-05-19T22:03:06.725Z,12.70
2023-05-19T22:05:35.154Z,12.70
2023-05-19T22:08:01.892Z,12.70
2023-05-19T22:10:28.565Z,12.70
2023-05-19T22:12:55.594Z,12.60
2023-05-19T22:15:22.262Z,12.70
2023-05-19T22:17:48.906Z,12.70
2023-05-19T22:20:15.643Z,12.60
2023-05-19T22:22:42.228Z,12.60
2023-05-19T22:25:08.866Z,12.60
2023-05-19T22:27:35.426Z,12.50
2023-05-19T22:30:02.327Z,12.40
2023-05-19T22:32:28.971Z,12.40
2023-05-19T22:34:55.999Z,12.40
2023-05-19T22:37:23.015Z,12.40
2023-05-19T22:39:51.022Z,12.40
2023-05-19T22:42:18.486Z,12.40
2023-05-19T22:44:45.227Z,12.40
2023-05-19T22:47:13.753Z,12.40
2023-05-19T22:49:40.885Z,12.40
2023-05-19T22:52:08.904Z,12.40
2023-05-19T22:54:40.734Z,12.40
2023-05-19T22:57:11.179Z,12.40
2023-05-19T23:00:15.690Z,12.40
2023-05-19T23:02:42.467Z,12.40
2023-05-19T23:05:09.161Z,12.40
2023-05-19T23:07:35.972Z,12.40
2023-05-19T23:10:04.179Z,12.40
2023-05-19T23:12:30.836Z,12.40
2023-05-19T23:14:57.385Z,12.40
2023-05-19T23:17:24.113Z,12.40
2023-05-19T23:19:50.697Z,12.30
2023-05-19T23:22:17.278Z,12.40
2023-05-19T23:24:43.973Z,12.40
2023-05-19T23:27:23.883Z,12.30
2023-05-19T23:29:50.759Z,12.30
2023-05-19T23:32:17.315Z,12.30
2023-05-19T23:34:44.442Z,12.30
2023-05-19T23:37:11.919Z,12.40
2023-05-19T23:39:39.563Z,12.30
2023-05-19T23:42:06.662Z,12.30
2023-05-19T23:44:33.216Z,12.30
2023-05-19T23:47:00.238Z,12.30
2023-05-19T23:49:26.973Z,12.20
2023-05-19T23:51:53.590Z,12.20
2023-05-19T23:54:21.159Z,12.20
2023-05-19T23:56:47.841Z,12.20
2023-05-19T23:59:14.386Z,12.20
